createdAt,value
2018-12-14T00:00:59.121Z,98205.95
2018-12-14T00:02:05.250Z,98202.67
2018-12-14T00:03:08.678Z,98197.61
2018-12-14T00:04:13.247Z,98205.39
2018-12-14T00:05:16.113Z,98206.16
2018-12-14T00:06:18.888Z,98205.56
2018-12-14T00:07:22.140Z,98196.20
2018-12-14T00:08:25.103Z,98210.63
2018-12-14T00:09:28.901Z,98207.41
2018-12-14T00:10:31.675Z,98212.52
2018-12-14T00:11:34.443Z,98203.14
2018-12-14T00:12:38.034Z,98201.26
2018-12-14T00:13:41.089Z,98206.58
2018-12-14T00:14:43.922Z,98202.84
2018-12-14T00:15:46.702Z,98212.98
2018-12-14T00:16:49.501Z,98210.86
2018-12-14T00:17:52.274Z,98208.29
2018-12-14T00:18:56.067Z,98210.17
2018-12-14T00:19:59.156Z,98212.27
2018-12-14T00:21:01.915Z,98212.24
2018-12-14T00:22:04.728Z,98211.42
2018-12-14T00:23:07.577Z,98214.62
2018-12-14T00:24:10.360Z,98218.91
2018-12-14T00:25:13.184Z,98216.51
2018-12-14T00:26:16.291Z,98213.81
2018-12-14T00:27:19.210Z,98211.38
2018-12-14T00:28:23.712Z,98224.50
2018-12-14T00:29:26.792Z,98217.27
2018-12-14T00:30:29.578Z,98216.44
2018-12-14T00:31:32.642Z,98207.27
2018-12-14T00:32:35.440Z,98202.97
2018-12-14T00:33:38.295Z,98213.72
2018-12-14T00:34:41.082Z,98213.68
2018-12-14T00:35:44.057Z,98212.88
2018-12-14T00:36:46.818Z,98211.27
2018-12-14T00:37:49.918Z,98212.87
2018-12-14T00:38:52.822Z,98218.77
2018-12-14T00:39:57.537Z,98209.39
2018-12-14T00:41:00.318Z,98213.47
2018-12-14T00:42:03.099Z,98212.63
2018-12-14T00:43:05.906Z,98218.25
2018-12-14T00:44:08.672Z,98222.29
2018-12-14T00:45:11.478Z,98218.23
2018-12-14T00:46:14.265Z,98209.66
2018-12-14T00:47:17.089Z,98218.78
2018-12-14T00:48:19.865Z,98221.45
2018-12-14T00:49:22.637Z,98222.02
2018-12-14T00:50:27.304Z,98220.08
2018-12-14T00:51:30.134Z,98237.20
2018-12-14T00:52:33.909Z,98237.42
2018-12-14T00:53:37.759Z,98230.72
2018-12-14T00:54:40.501Z,98225.64
2018-12-14T00:55:43.692Z,98231.28
2018-12-14T00:56:46.741Z,98241.97
2018-12-14T00:57:49.513Z,98234.17
2018-12-14T00:58:52.945Z,98234.98
2018-12-14T00:59:55.827Z,98238.31
2018-12-14T01:00:59.037Z,98240.70
2018-12-14T01:02:02.563Z,98239.66
2018-12-14T01:03:05.793Z,98234.52
2018-12-14T01:04:08.618Z,98237.20
2018-12-14T01:05:12.486Z,98246.03
2018-12-14T01:06:15.724Z,98244.92
2018-12-14T01:07:19.628Z,98247.59
2018-12-14T01:08:23.354Z,98244.08
2018-12-14T01:09:26.562Z,98252.36
2018-12-14T01:10:29.343Z,98246.52
2018-12-14T01:11:32.368Z,98248.94
2018-12-14T01:12:35.158Z,98250.78
2018-12-14T01:13:38.088Z,98243.28
2018-12-14T01:14:40.896Z,98251.61
2018-12-14T01:15:44.005Z,98261.02
2018-12-14T01:16:46.820Z,98250.27
2018-12-14T01:17:49.627Z,98249.26
2018-12-14T01:18:52.406Z,98255.44
2018-12-14T01:19:55.211Z,98248.45
2018-12-14T01:20:57.974Z,98255.13
2018-12-14T01:22:01.079Z,98262.59
2018-12-14T01:23:03.885Z,98258.83
2018-12-14T01:24:06.775Z,98246.54
2018-12-14T01:25:09.561Z,98251.34
2018-12-14T01:26:13.975Z,98246.26
2018-12-14T01:27:16.737Z,98239.28
2018-12-14T01:28:19.834Z,98240.89
2018-12-14T01:29:23.366Z,98244.64
2018-12-14T01:30:26.136Z,98243.56
2018-12-14T01:31:28.895Z,98245.98
2018-12-14T01:32:31.662Z,98246.03
2018-12-14T01:33:34.391Z,98249.52
2018-12-14T01:34:37.482Z,98249.73
2018-12-14T01:35:40.249Z,98249.45
2018-12-14T01:36:43.032Z,98242.23
2018-12-14T01:37:45.791Z,98241.97
2018-12-14T01:38:48.608Z,98243.30
2018-12-14T01:39:51.406Z,98249.70
2018-12-14T01:40:55.583Z,98247.59
2018-12-14T01:42:04.611Z,98255.36
2018-12-14T01:43:03.846Z,98246.84
2018-12-14T01:44:07.318Z,98240.41
2018-12-14T01:45:10.018Z,98247.05
2018-12-14T01:46:12.797Z,98247.31
2018-12-14T01:47:15.963Z,98249.70
2018-12-14T01:48:18.835Z,98248.66
2018-12-14T01:49:22.406Z,98247.31
2018-12-14T01:50:25.160Z,98248.11
2018-12-14T01:51:27.922Z,98241.42
2018-12-14T01:52:30.842Z,98246.79
2018-12-14T01:53:33.916Z,98242.53
2018-12-14T01:54:36.704Z,98246.79
2018-12-14T01:55:39.517Z,98243.58
2018-12-14T01:56:42.286Z,98243.08
2018-12-14T01:57:45.039Z,98234.80
2018-12-14T01:58:47.795Z,98238.88
2018-12-14T01:59:51.368Z,98241.49
2018-12-14T02:00:55.282Z,98237.42
2018-12-14T02:02:00.066Z,98235.58
2018-12-14T02:03:02.849Z,98232.64
2018-12-14T02:04:05.617Z,98230.50
2018-12-14T02:05:08.732Z,98235.53
2018-12-14T02:06:11.498Z,98235.81
2018-12-14T02:07:14.321Z,98228.30
2018-12-14T02:08:17.134Z,98236.06
2018-12-14T02:09:20.595Z,98229.12
2018-12-14T02:10:23.354Z,98228.30
2018-12-14T02:11:26.431Z,98231.52
2018-12-14T02:12:29.250Z,98228.58
2018-12-14T02:13:32.057Z,98223.52
2018-12-14T02:14:34.840Z,98230.48
2018-12-14T02:15:37.592Z,98225.64
2018-12-14T02:16:40.432Z,98229.19
2018-12-14T02:17:43.555Z,98225.97
2018-12-14T02:18:46.331Z,98230.78
2018-12-14T02:19:49.156Z,98225.44
2018-12-14T02:20:51.934Z,98229.45
2018-12-14T02:21:54.766Z,98228.62
2018-12-14T02:22:57.516Z,98229.40
2018-12-14T02:24:00.564Z,98228.32
2018-12-14T02:25:03.346Z,98225.92
2018-12-14T02:26:06.121Z,98223.76
2018-12-14T02:27:08.902Z,98224.31
2018-12-14T02:28:11.711Z,98223.29
2018-12-14T02:29:14.424Z,98227.32
2018-12-14T02:30:17.577Z,98228.86
2018-12-14T02:31:20.320Z,98229.92
2018-12-14T02:32:23.101Z,98233.63
2018-12-14T02:33:26.790Z,98219.46
2018-12-14T02:34:29.590Z,98219.48
2018-12-14T02:35:32.355Z,98224.01
2018-12-14T02:36:35.625Z,98230.98
2018-12-14T02:37:38.446Z,98227.51
2018-12-14T02:38:42.076Z,98223.48
2018-12-14T02:39:44.862Z,98215.16
2018-12-14T02:40:47.706Z,98223.45
2018-12-14T02:41:50.482Z,98222.91
2018-12-14T02:42:53.681Z,98224.77
2018-12-14T02:43:56.441Z,98228.52
2018-12-14T02:44:59.207Z,98224.53
2018-12-14T02:46:02.011Z,98227.77
2018-12-14T02:47:04.830Z,98226.94
2018-12-14T02:48:07.639Z,98231.78
2018-12-14T02:49:10.891Z,98229.34
2018-12-14T02:50:13.666Z,98234.13
2018-12-14T02:51:16.490Z,98234.16
2018-12-14T02:52:19.274Z,98229.31
2018-12-14T02:53:22.039Z,98226.63
2018-12-14T02:54:24.803Z,98228.23
2018-12-14T02:55:27.975Z,98227.19
2018-12-14T02:56:30.740Z,98240.28
2018-12-14T02:57:33.527Z,98234.93
2018-12-14T02:58:36.306Z,98218.36
2018-12-14T02:59:40.572Z,98237.58
2018-12-14T03:00:43.316Z,98230.35
2018-12-14T03:01:47.369Z,98236.25
2018-12-14T03:02:50.576Z,98233.55
2018-12-14T03:03:53.348Z,98233.85
2018-12-14T03:04:56.107Z,98233.85
2018-12-14T03:05:58.911Z,98229.02
2018-12-14T03:07:01.726Z,98232.78
2018-12-14T03:08:05.807Z,98233.85
2018-12-14T03:09:08.617Z,98225.52
2018-12-14T03:10:11.636Z,98220.97
2018-12-14T03:11:14.437Z,98231.46
2018-12-14T03:12:17.211Z,98230.33
2018-12-14T03:13:20.011Z,98227.94
2018-12-14T03:14:23.246Z,98224.77
2018-12-14T03:15:25.996Z,98227.45
2018-12-14T03:16:28.711Z,98226.96
2018-12-14T03:17:31.541Z,98223.50
2018-12-14T03:18:34.349Z,98223.98
2018-12-14T03:19:37.098Z,98216.77
2018-12-14T03:20:40.716Z,98223.17
2018-12-14T03:21:46.685Z,98218.36
2018-12-14T03:22:50.402Z,98213.24
2018-12-14T03:23:53.233Z,98214.86
2018-12-14T03:24:56.065Z,98217.83
2018-12-14T03:25:59.020Z,98214.38
2018-12-14T03:27:02.121Z,98220.81
2018-12-14T03:28:04.947Z,98220.78
2018-12-14T03:29:07.746Z,98219.97
2018-12-14T03:30:10.522Z,98217.86
2018-12-14T03:31:13.661Z,98220.81
2018-12-14T03:32:16.603Z,98224.57
2018-12-14T03:33:20.508Z,98226.20
2018-12-14T03:34:23.519Z,98224.63
2018-12-14T03:35:26.423Z,98225.16
2018-12-14T03:36:31.414Z,98219.20
2018-12-14T03:37:34.780Z,98224.83
2018-12-14T03:38:38.475Z,98221.63
2018-12-14T03:39:41.253Z,98218.94
2018-12-14T03:40:48.709Z,98219.46
2018-12-14T03:41:51.472Z,98214.39
2018-12-14T03:42:54.259Z,98218.64
2018-12-14T03:43:57.843Z,98216.78
2018-12-14T03:45:00.948Z,98215.19
2018-12-14T03:46:04.423Z,98218.64
2018-12-14T03:47:08.301Z,98216.22
2018-12-14T03:48:11.084Z,98211.17
2018-12-14T03:49:13.838Z,98216.83
2018-12-14T03:50:16.611Z,98214.43
2018-12-14T03:51:23.652Z,98211.25
2018-12-14T03:52:26.443Z,98217.92
2018-12-14T03:53:29.216Z,98219.52
2018-12-14T03:54:32.009Z,98216.83
2018-12-14T03:55:34.785Z,98214.66
2018-12-14T03:56:37.863Z,98218.13
2018-12-14T03:57:40.989Z,98218.64
2018-12-14T03:58:43.770Z,98210.29
2018-12-14T03:59:46.584Z,98212.23
2018-12-14T04:00:49.522Z,98206.63
2018-12-14T04:01:52.256Z,98210.64
2018-12-14T04:02:55.238Z,98208.53
2018-12-14T04:03:58.341Z,98202.64
2018-12-14T04:05:01.136Z,98205.31
2018-12-14T04:06:03.886Z,98206.66
2018-12-14T04:07:06.641Z,98208.57
2018-12-14T04:08:09.440Z,98207.48
2018-12-14T04:09:12.222Z,98210.13
2018-12-14T04:10:15.331Z,98204.22
2018-12-14T04:11:18.713Z,98206.45
2018-12-14T04:12:22.921Z,98209.45
2018-12-14T04:13:25.683Z,98209.41
2018-12-14T04:14:28.472Z,98218.75
2018-12-14T04:15:31.292Z,98207.76
2018-12-14T04:16:34.401Z,98214.96
2018-12-14T04:17:37.198Z,98218.47
2018-12-14T04:18:39.961Z,98219.77
2018-12-14T04:19:42.802Z,98212.25
2018-12-14T04:20:45.578Z,98215.47
2018-12-14T04:21:48.359Z,98205.03
2018-12-14T04:22:51.457Z,98206.88
2018-12-14T04:23:54.244Z,98210.08
2018-12-14T04:24:57.037Z,98206.84
2018-12-14T04:25:59.822Z,98213.03
2018-12-14T04:27:02.634Z,98202.34
2018-12-14T04:28:05.413Z,98207.45
2018-12-14T04:29:09.118Z,98210.87
2018-12-14T04:30:11.926Z,98207.38
2018-12-14T04:31:14.738Z,98206.84
2018-12-14T04:32:17.557Z,98205.22
2018-12-14T04:33:20.336Z,98205.22
2018-12-14T04:34:23.091Z,98207.89
2018-12-14T04:35:26.159Z,98212.96
2018-12-14T04:36:29.101Z,98207.14
2018-12-14T04:37:31.935Z,98203.91
2018-12-14T04:38:34.761Z,98210.34
2018-12-14T04:39:37.559Z,98211.09
2018-12-14T04:40:40.342Z,98211.87
2018-12-14T04:41:43.429Z,98213.78
2018-12-14T04:42:48.969Z,98216.75
2018-12-14T04:43:52.789Z,98213.75
2018-12-14T04:44:55.504Z,98218.53
2018-12-14T04:45:58.302Z,98213.75
2018-12-14T04:47:01.261Z,98211.67
2018-12-14T04:48:04.337Z,98203.34
2018-12-14T04:49:07.127Z,98211.59
2018-12-14T04:50:10.558Z,98207.59
2018-12-14T04:51:13.467Z,98209.75
2018-12-14T04:52:16.267Z,98211.91
2018-12-14T04:53:19.111Z,98210.55
2018-12-14T04:54:22.277Z,98210.83
2018-12-14T04:55:25.082Z,98213.48
2018-12-14T04:56:27.869Z,98214.56
2018-12-14T04:57:30.688Z,98223.17
2018-12-14T04:58:33.494Z,98211.92
2018-12-14T04:59:36.272Z,98218.08
2018-12-14T05:00:39.360Z,98212.19
2018-12-14T05:01:42.187Z,98216.98
2018-12-14T05:02:44.987Z,98220.17
2018-12-14T05:03:47.834Z,98217.73
2018-12-14T05:04:50.628Z,98214.22
2018-12-14T05:05:53.397Z,98212.15
2018-12-14T05:06:56.448Z,98215.86
2018-12-14T05:07:59.232Z,98211.09
2018-12-14T05:09:02.078Z,98220.48
2018-12-14T05:10:04.853Z,98218.06
2018-12-14T05:11:07.699Z,98225.80
2018-12-14T05:12:10.474Z,98220.73
2018-12-14T05:13:13.908Z,98226.11
2018-12-14T05:14:17.218Z,98225.28
2018-12-14T05:15:20.139Z,98231.14
2018-12-14T05:16:22.918Z,98230.33
2018-12-14T05:17:25.763Z,98230.59
2018-12-14T05:18:30.575Z,98234.11
2018-12-14T05:19:33.747Z,98230.59
2018-12-14T05:20:36.545Z,98228.20
2018-12-14T05:21:39.383Z,98234.58
2018-12-14T05:22:42.149Z,98227.34
2018-12-14T05:23:44.900Z,98235.64
2018-12-14T05:24:47.664Z,98227.92
2018-12-14T05:25:50.742Z,98229.28
2018-12-14T05:26:54.368Z,98230.92
2018-12-14T05:27:57.177Z,98233.59
2018-12-14T05:29:00.017Z,98232.52
2018-12-14T05:30:02.953Z,98232.28
2018-12-14T05:31:05.735Z,98236.29
2018-12-14T05:32:08.828Z,98234.63
2018-12-14T05:33:11.593Z,98236.48
2018-12-14T05:34:14.417Z,98234.30
2018-12-14T05:35:17.252Z,98235.66
2018-12-14T05:36:20.101Z,98233.27
2018-12-14T05:37:23.051Z,98238.11
2018-12-14T05:38:26.267Z,98238.34
2018-12-14T05:39:29.101Z,98239.95
2018-12-14T05:40:31.924Z,98237.05
2018-12-14T05:41:34.838Z,98240.02
2018-12-14T05:42:37.700Z,98233.83
2018-12-14T05:43:40.542Z,98241.27
2018-12-14T05:44:43.605Z,98234.09
2018-12-14T05:45:46.436Z,98238.88
2018-12-14T05:46:49.247Z,98239.42
2018-12-14T05:47:52.037Z,98240.78
2018-12-14T05:48:54.863Z,98238.90
2018-12-14T05:49:57.638Z,98245.89
2018-12-14T05:51:00.751Z,98243.73
2018-12-14T05:52:04.208Z,98248.27
2018-12-14T05:53:06.970Z,98243.66
2018-12-14T05:54:09.739Z,98248.77
2018-12-14T05:55:13.328Z,98251.20
2018-12-14T05:56:16.159Z,98248.56
2018-12-14T05:57:19.468Z,98256.55
2018-12-14T05:58:22.388Z,98247.67
2018-12-14T05:59:25.208Z,98247.42
2018-12-14T06:00:28.828Z,98254.18
2018-12-14T06:01:31.601Z,98256.59
2018-12-14T06:02:34.433Z,98251.00
2018-12-14T06:03:37.721Z,98248.33
2018-12-14T06:04:42.446Z,98248.80
2018-12-14T06:05:45.270Z,98248.55
2018-12-14T06:06:48.233Z,98245.38
2018-12-14T06:07:52.013Z,98247.30
2018-12-14T06:08:55.461Z,98247.81
2018-12-14T06:09:58.691Z,98250.52
2018-12-14T06:11:01.469Z,98245.06
2018-12-14T06:12:05.077Z,98244.48
2018-12-14T06:13:09.286Z,98243.91
2018-12-14T06:14:12.294Z,98244.98
2018-12-14T06:15:15.652Z,98246.86
2018-12-14T06:16:18.958Z,98250.08
2018-12-14T06:17:21.777Z,98252.20
2018-12-14T06:18:25.362Z,98255.68
2018-12-14T06:19:35.472Z,98250.28
2018-12-14T06:20:38.261Z,98254.79
2018-12-14T06:21:41.055Z,98258.56
2018-12-14T06:22:44.176Z,98258.83
2018-12-14T06:23:47.022Z,98252.67
2018-12-14T06:24:50.106Z,98257.48
2018-12-14T06:25:52.913Z,98261.78
2018-12-14T06:26:55.677Z,98263.45
2018-12-14T06:27:58.507Z,98263.70
2018-12-14T06:29:03.069Z,98261.03
2018-12-14T06:45:05.009Z,98286.00
2018-12-14T06:46:07.769Z,98277.22
2018-12-14T06:47:10.537Z,98280.48
2018-12-14T06:48:13.666Z,98276.70
2018-12-14T06:49:16.468Z,98275.83
2018-12-14T06:50:20.071Z,98271.80
2018-12-14T06:51:22.800Z,98274.57
2018-12-14T06:52:25.652Z,98270.78
2018-12-14T06:53:29.356Z,98279.91
2018-12-14T06:54:33.580Z,98280.65
2018-12-14T06:55:36.410Z,98281.98
2018-12-14T06:56:39.416Z,98284.36
2018-12-14T06:57:42.226Z,98285.72
2018-12-14T06:58:45.514Z,98280.95
2018-12-14T06:59:48.279Z,98283.11
2018-12-14T07:00:51.465Z,98287.17
2018-12-14T07:01:54.326Z,98291.42
2018-12-14T07:02:58.643Z,98286.02
2018-12-14T07:04:04.801Z,98284.99
2018-12-14T07:05:08.128Z,98278.02
2018-12-14T07:06:11.444Z,98283.06
2018-12-14T07:07:14.644Z,98284.42
2018-12-14T07:08:17.502Z,98286.05
2018-12-14T07:09:20.587Z,98283.86
2018-12-14T07:10:23.378Z,98287.30
2018-12-14T07:11:26.309Z,98288.89
2018-12-14T07:12:29.435Z,98291.25
2018-12-14T07:13:32.684Z,98291.53
2018-12-14T07:14:35.513Z,98291.06
2018-12-14T07:15:38.345Z,98298.63
2018-12-14T07:16:41.239Z,98297.52
2018-12-14T07:17:44.075Z,98301.77
2018-12-14T07:18:47.992Z,98306.30
2018-12-14T07:19:51.237Z,98301.41
2018-12-14T07:20:53.991Z,98299.59
2018-12-14T07:21:58.998Z,98304.42
2018-12-14T07:23:01.882Z,98306.09
2018-12-14T07:24:05.591Z,98309.58
2018-12-14T07:25:08.438Z,98310.17
2018-12-14T07:26:12.464Z,98306.14
2018-12-14T07:27:15.915Z,98307.71
2018-12-14T07:28:19.709Z,98311.47
2018-12-14T07:29:22.530Z,98317.87
2018-12-14T07:30:25.323Z,98318.11
2018-12-14T07:31:28.578Z,98318.83
2018-12-14T07:32:32.880Z,98319.85
2018-12-14T07:33:36.542Z,98313.14
2018-12-14T07:34:41.792Z,98314.30
2018-12-14T07:35:46.341Z,98311.08
2018-12-14T07:36:49.114Z,98318.08
2018-12-14T07:37:52.580Z,98328.47
2018-12-14T07:38:56.350Z,98318.84
2018-12-14T07:39:59.220Z,98323.99
2018-12-14T07:41:02.275Z,98324.77
2018-12-14T07:42:06.087Z,98325.02
2018-12-14T07:43:08.856Z,98322.89
2018-12-14T07:44:12.055Z,98325.59
2018-12-14T07:45:15.132Z,98333.35
2018-12-14T07:46:20.535Z,98334.47
2018-12-14T07:47:23.458Z,98333.16
2018-12-14T07:48:26.345Z,98335.26
2018-12-14T07:49:29.665Z,98331.25
2018-12-14T07:50:34.611Z,98337.42
2018-12-14T07:51:37.711Z,98336.62
2018-12-14T07:52:42.623Z,98334.80
2018-12-14T07:53:45.401Z,98335.33
2018-12-14T07:54:48.237Z,98346.30
2018-12-14T07:55:51.266Z,98341.48
2018-12-14T07:56:55.696Z,98340.15
2018-12-14T07:57:59.245Z,98341.48
2018-12-14T07:59:02.856Z,98338.01
2018-12-14T08:00:05.826Z,98338.65
2018-12-14T08:01:08.708Z,98346.26
2018-12-14T08:02:12.525Z,98346.33
2018-12-14T08:03:18.786Z,98349.99
2018-12-14T08:04:21.809Z,98354.23
2018-12-14T08:05:24.606Z,98350.73
2018-12-14T08:06:29.455Z,98354.29
2018-12-14T08:07:32.313Z,98348.94
2018-12-14T08:08:36.192Z,98363.33
2018-12-14T08:09:40.348Z,98367.29
2018-12-14T08:10:44.213Z,98363.20
2018-12-14T08:11:49.293Z,98365.34
2018-12-14T08:12:52.366Z,98366.39
2018-12-14T08:13:56.750Z,98360.75
2018-12-14T08:14:59.541Z,98367.41
2018-12-14T08:16:02.868Z,98366.91
2018-12-14T08:17:05.725Z,98371.45
2018-12-14T08:18:08.576Z,98367.98
2018-12-14T08:19:12.333Z,98370.89
2018-12-14T08:20:17.288Z,98373.03
2018-12-14T08:21:20.197Z,98371.43
2018-12-14T08:22:23.353Z,98364.74
2018-12-14T08:23:26.755Z,98372.77
2018-12-14T08:24:29.626Z,98371.77
2018-12-14T08:25:32.655Z,98370.41
2018-12-14T08:26:39.885Z,98375.50
2018-12-14T08:27:42.749Z,98378.43
2018-12-14T08:28:46.141Z,98376.58
2018-12-14T08:29:48.974Z,98374.13
2018-12-14T08:30:51.849Z,98375.16
2018-12-14T08:31:54.737Z,98378.12
2018-12-14T08:32:57.534Z,98380.56
2018-12-14T08:34:00.626Z,98378.15
2018-12-14T08:35:03.445Z,98374.49
2018-12-14T08:36:06.360Z,98374.19
2018-12-14T08:37:09.166Z,98386.17
2018-12-14T08:38:12.703Z,98391.52
2018-12-14T08:39:17.182Z,98382.67
2018-12-14T08:40:20.368Z,98393.86
2018-12-14T08:41:23.224Z,98388.80
2018-12-14T08:42:26.130Z,98392.99
2018-12-14T08:43:30.597Z,98390.89
2018-12-14T08:44:33.428Z,98390.78
2018-12-14T08:45:36.229Z,98387.23
2018-12-14T08:46:39.640Z,98391.04
2018-12-14T08:47:42.472Z,98386.72
2018-12-14T08:48:46.099Z,98394.69
2018-12-14T08:49:48.953Z,98392.78
2018-12-14T08:50:52.725Z,98392.55
2018-12-14T08:51:56.490Z,98394.46
2018-12-14T08:52:59.311Z,98397.37
2018-12-14T08:54:02.227Z,98395.20
2018-12-14T08:55:05.697Z,98398.45
2018-12-14T08:56:08.528Z,98400.35
2018-12-14T08:57:11.382Z,98397.67
2018-12-14T08:58:14.463Z,98406.76
2018-12-14T08:59:17.283Z,98400.92
2018-12-14T09:00:20.093Z,98405.19
2018-12-14T09:01:22.873Z,98401.35
2018-12-14T09:02:25.719Z,98410.74
2018-12-14T09:03:29.250Z,98408.69
2018-12-14T09:04:32.510Z,98408.77
2018-12-14T09:05:35.344Z,98406.63
2018-12-14T09:06:38.151Z,98406.61
2018-12-14T09:07:40.920Z,98407.92
2018-12-14T09:08:44.454Z,98413.27
2018-12-14T09:09:47.367Z,98414.04
2018-12-14T09:10:56.243Z,98413.22
2018-12-14T09:11:59.073Z,98412.19
2018-12-14T09:13:01.911Z,98416.20
2018-12-14T09:14:04.796Z,98411.11
2018-12-14T09:15:07.640Z,98406.84
2018-12-14T09:16:10.394Z,98408.16
2018-12-14T09:17:13.547Z,98411.28
2018-12-14T09:18:16.411Z,98412.94
2018-12-14T09:19:20.178Z,98412.19
2018-12-14T09:20:22.986Z,98405.78
2018-12-14T09:21:25.834Z,98410.94
2018-12-14T09:22:29.861Z,98409.88
2018-12-14T09:23:34.042Z,98409.16
2018-12-14T09:24:38.258Z,98408.08
2018-12-14T09:25:41.296Z,98404.09
2018-12-14T09:26:44.188Z,98413.17
2018-12-14T09:27:47.593Z,98412.89
2018-12-14T09:28:51.423Z,98414.72
2018-12-14T09:29:55.347Z,98410.73
2018-12-14T09:30:58.213Z,98411.75
2018-12-14T09:32:01.086Z,98414.52
2018-12-14T09:33:04.072Z,98410.08
2018-12-14T09:34:07.423Z,98414.25
2018-12-14T09:35:10.326Z,98413.95
2018-12-14T09:36:13.477Z,98408.44
2018-12-14T09:37:16.299Z,98413.91
2018-12-14T09:38:19.372Z,98412.47
2018-12-14T09:39:22.405Z,98416.95
2018-12-14T09:40:27.701Z,98411.30
2018-12-14T09:41:31.501Z,98415.59
2018-12-14T09:42:35.611Z,98420.66
2018-12-14T09:43:38.634Z,98413.69
2018-12-14T09:44:41.458Z,98411.91
2018-12-14T09:45:47.949Z,98410.58
2018-12-14T09:46:50.871Z,98415.51
2018-12-14T09:47:53.748Z,98412.55
2018-12-14T09:48:56.962Z,98410.72
2018-12-14T09:50:01.895Z,98417.46
2018-12-14T09:51:12.183Z,98415.30
2018-12-14T09:52:10.471Z,98410.55
2018-12-14T09:53:16.560Z,98419.55
2018-12-14T09:54:21.455Z,98416.52
2018-12-14T09:55:25.396Z,98418.63
2018-12-14T09:56:29.374Z,98418.32
2018-12-14T09:57:34.910Z,98418.06
2018-12-14T09:58:37.826Z,98422.13
2018-12-14T09:59:40.649Z,98416.41
2018-12-14T10:00:43.454Z,98424.75
2018-12-14T10:01:46.248Z,98414.03
2018-12-14T10:02:49.046Z,98415.02
2018-12-14T10:03:52.150Z,98415.44
2018-12-14T10:06:42.146Z,98418.86
2018-12-14T10:07:46.959Z,98424.42
2018-12-14T10:08:53.234Z,98427.90
2018-12-14T10:09:56.042Z,98418.78
2018-12-14T10:10:59.042Z,98420.45
2018-12-14T10:12:01.840Z,98417.11
2018-12-14T10:13:08.997Z,98421.64
2018-12-14T10:14:12.716Z,98419.94
2018-12-14T10:15:15.743Z,98419.12
2018-12-14T10:16:19.504Z,98417.73
2018-12-14T10:17:23.064Z,98425.89
2018-12-14T10:18:26.602Z,98420.33
2018-12-14T10:19:29.848Z,98418.21
2018-12-14T10:20:32.801Z,98420.42
2018-12-14T10:21:35.611Z,98420.86
2018-12-14T10:22:41.550Z,98414.87
2018-12-14T10:23:44.722Z,98407.90
2018-12-14T10:24:47.956Z,98413.02
2018-12-14T10:25:51.257Z,98403.91
2018-12-14T10:26:54.968Z,98411.62
2018-12-14T10:27:58.021Z,98411.42
2018-12-14T10:29:01.092Z,98412.73
2018-12-14T10:30:04.139Z,98411.38
2018-12-14T10:31:07.724Z,98414.54
2018-12-14T10:32:11.185Z,98415.34
2018-12-14T10:33:15.044Z,98409.23
2018-12-14T10:34:18.301Z,98415.15
2018-12-14T10:35:25.718Z,98413.61
2018-12-14T10:36:29.864Z,98408.77
2018-12-14T10:37:33.495Z,98409.84
2018-12-14T10:38:38.832Z,98407.80
2018-12-14T10:39:43.133Z,98408.16
2018-12-14T10:40:46.437Z,98399.53
2018-12-14T10:41:49.406Z,98400.09
2018-12-14T10:42:53.669Z,98403.24
2018-12-14T10:43:56.959Z,98408.41
2018-12-14T10:45:04.903Z,98403.57
2018-12-14T10:46:07.799Z,98398.41
2018-12-14T10:47:11.609Z,98402.98
2018-12-14T10:48:15.958Z,98399.80
2018-12-14T10:49:19.506Z,98393.09
2018-12-14T10:50:22.884Z,98394.39
2018-12-14T10:51:26.734Z,98397.75
2018-12-14T10:52:29.913Z,98401.56
2018-12-14T10:53:32.803Z,98398.48
2018-12-14T10:54:36.017Z,98396.74
2018-12-14T10:55:39.116Z,98397.02
2018-12-14T10:56:42.084Z,98396.69
2018-12-14T10:57:46.650Z,98399.87
2018-12-14T10:58:49.589Z,98395.80
2018-12-14T10:59:53.213Z,98387.27
2018-12-14T11:01:00.909Z,98392.73
2018-12-14T11:02:03.912Z,98392.47
2018-12-14T11:03:06.794Z,98392.75
2018-12-14T11:04:10.185Z,98394.91
2018-12-14T11:05:13.144Z,98393.83
2018-12-14T11:06:16.715Z,98391.50
2018-12-14T11:07:19.685Z,98396.86
2018-12-14T11:08:22.715Z,98390.68
2018-12-14T11:09:25.756Z,98386.38
2018-12-14T11:14:39.028Z,98392.63
2018-12-14T11:15:43.564Z,98392.34
2018-12-14T11:16:46.559Z,98389.36
2018-12-14T11:17:50.598Z,98389.08
2018-12-14T11:18:54.672Z,98392.48
2018-12-14T11:19:58.185Z,98392.47
2018-12-14T11:21:01.132Z,98394.11
2018-12-14T11:22:05.908Z,98389.53
2018-12-14T11:23:09.624Z,98392.00
2018-12-14T11:24:12.617Z,98390.24
2018-12-14T11:25:15.422Z,98381.38
2018-12-14T11:26:18.518Z,98388.00
2018-12-14T11:27:21.476Z,98384.73
2018-12-14T11:28:25.760Z,98385.00
2018-12-14T11:29:28.665Z,98379.36
2018-12-14T11:42:53.263Z,98382.86
2018-12-14T11:45:10.241Z,98385.94
2018-12-14T11:46:14.629Z,98384.83
2018-12-14T11:47:18.784Z,98388.57
2018-12-14T11:48:21.594Z,98386.16
2018-12-14T11:49:24.524Z,98392.81
2018-12-14T11:50:29.369Z,98389.91
2018-12-14T11:51:33.495Z,98389.06
2018-12-14T11:52:36.426Z,98382.36
2018-12-14T11:53:40.583Z,98389.64
2018-12-14T11:54:43.670Z,98385.67
2018-12-14T11:55:46.595Z,98384.86
2018-12-14T11:56:49.602Z,98382.71
2018-12-14T11:57:52.566Z,98388.09
2018-12-14T11:58:55.450Z,98381.03
2018-12-14T11:59:58.565Z,98384.48
2018-12-14T12:01:01.450Z,98373.58
2018-12-14T12:02:04.406Z,98380.59
2018-12-14T12:03:07.562Z,98379.98
2018-12-14T12:04:11.130Z,98378.37
2018-12-14T12:05:14.512Z,98376.77
2018-12-14T12:06:18.759Z,98378.34
2018-12-14T12:07:23.712Z,98375.17
2018-12-14T12:08:27.648Z,98377.53
2018-12-14T12:09:31.532Z,98382.45
2018-12-14T12:10:37.341Z,98377.67
2018-12-14T12:11:40.140Z,98378.69
2018-12-14T12:12:45.861Z,98386.41
2018-12-14T12:13:48.699Z,98381.61
2018-12-14T12:14:51.541Z,98384.35
2018-12-14T12:15:55.397Z,98376.96
2018-12-14T12:16:58.496Z,98382.92
2018-12-14T12:18:01.689Z,98383.73
2018-12-14T12:19:09.027Z,98379.08
2018-12-14T12:20:13.329Z,98376.92
2018-12-14T12:21:16.446Z,98380.62
2018-12-14T12:22:19.290Z,98375.69
2018-12-14T12:23:23.766Z,98382.91
2018-12-14T12:24:27.125Z,98382.88
2018-12-14T12:25:32.480Z,98378.34
2018-12-14T12:26:37.127Z,98380.48
2018-12-14T12:27:41.939Z,98377.77
2018-12-14T12:28:45.533Z,98381.57
2018-12-14T12:29:51.705Z,98377.80
2018-12-14T12:30:55.807Z,98379.88
2018-12-14T12:31:59.718Z,98384.67
2018-12-14T12:33:02.539Z,98388.99
2018-12-14T12:34:07.343Z,98381.78
2018-12-14T12:35:10.289Z,98377.67
2018-12-14T12:36:13.100Z,98379.09
2018-12-14T12:37:16.856Z,98374.22
2018-12-14T12:38:20.644Z,98379.77
2018-12-14T12:39:25.794Z,98380.94
2018-12-14T12:40:29.714Z,98382.47
2018-12-14T12:41:35.774Z,98381.06
2018-12-14T12:42:39.808Z,98381.61
2018-12-14T12:43:44.406Z,98383.44
2018-12-14T12:44:47.416Z,98386.66
2018-12-14T12:45:52.200Z,98382.65
2018-12-14T12:46:56.619Z,98380.48
2018-12-14T12:48:03.945Z,98379.97
2018-12-14T12:49:06.932Z,98381.00
2018-12-14T12:50:10.655Z,98384.73
2018-12-14T12:51:14.991Z,98384.45
2018-12-14T12:52:18.148Z,98378.59
2018-12-14T12:53:21.157Z,98374.38
2018-12-14T12:54:24.036Z,98378.41
2018-12-14T12:55:28.473Z,98378.73
2018-12-14T12:56:32.355Z,98380.87
2018-12-14T12:57:35.290Z,98388.66
2018-12-14T12:58:39.450Z,98385.33